Huvudsida
METAR-TAF:

METAR-TAF

Flygplatser :

Oljeplattform

Norne Fpso, Norge

latitud: 66-01-48N, longitud: 008-04-48E, höjd: 10 m

Aktuellt väderrapport

Denna rapport gjordes för 33 minuter sedan, klockan 14:20 UTC
Vind 16 kt från syd
Temperatur 10°C
Fuktighet 71%
Tryck 1018 hPa
Sikt 10 km eller mer
Få moln på en höjd av 6000 ft

METAR: ENNE 231420Z 19016KT 9999 FEW060 10/05 Q1018 W///S4

Tid: 16:53 (14:53 UTC)

Väderprognos

Denna rapport gjordes för 3 timmar och 53 minuter sedan, klockan 11:00 UTC
Prognos gäller från 23 kl. 12 UTC till 23 kl. 17 UTC
Vind 20 kt från syd
Sikt 10 km eller mer
Få moln på en höjd av 3000 ft
Blir
från 23 kl. 14 UTC till 23 kl. 16 UTC
Vind 8 kt varierande vindriktning

TAF: ENNE 231100Z 2312/2317 19020KT 9999 FEW030 BECMG 2314/2316 VRB08KT

Aktuella väderrapporter och prognoser från 4000 flygplatser (METAR- och TAF-rapporter).

De tillgängliga stationerna syns som gula och röda prickar på kartan.

För musen över prickarna för att se namnen på stationerna.

Klicka sedan för att få väderrapporter och prognoser.

För att ändra kartan: Klicka på de gröna knapparna med ett svart kors på för att zooma in; den gröna knappen med ett streck på för att zooma ut; eller på de gröna pilarna för angränsande kartor.


METAR-TAF: